sensor_id;sensor_type;location;lat;lon;timestamp;P1;durP1;ratioP1;P2;durP2;ratioP2
72649;SDS011;61467;50.674;4.618;2022-08-23T00:01:33;6.10;;;2.47;;
72649;SDS011;61467;50.674;4.618;2022-08-23T00:04:05;8.05;;;2.67;;
72649;SDS011;61467;50.674;4.618;2022-08-23T00:06:34;9.02;;;3.22;;
72649;SDS011;61467;50.674;4.618;2022-08-23T00:09:02;8.93;;;2.70;;
72649;SDS011;61467;50.674;4.618;2022-08-23T00:11:30;8.45;;;2.58;;
72649;SDS011;61467;50.674;4.618;2022-08-23T00:14:00;8.55;;;2.78;;
72649;SDS011;61467;50.674;4.618;2022-08-23T00:16:29;7.07;;;2.30;;
72649;SDS011;61467;50.674;4.618;2022-08-23T00:18:56;7.95;;;2.50;;
72649;SDS011;61467;50.674;4.618;2022-08-23T00:21:23;10.90;;;2.80;;
72649;SDS011;61467;50.674;4.618;2022-08-23T00:23:49;10.68;;;2.90;;
72649;SDS011;61467;50.674;4.618;2022-08-23T00:26:17;7.18;;;3.08;;
72649;SDS011;61467;50.674;4.618;2022-08-23T00:28:44;9.75;;;2.67;;
72649;SDS011;61467;50.674;4.618;2022-08-23T00:31:11;7.68;;;2.88;;
72649;SDS011;61467;50.674;4.618;2022-08-23T00:33:38;14.00;;;2.97;;
72649;SDS011;61467;50.674;4.618;2022-08-23T00:36:05;8.82;;;2.92;;
72649;SDS011;61467;50.674;4.618;2022-08-23T00:38:31;14.85;;;4.25;;
72649;SDS011;61467;50.674;4.618;2022-08-23T00:40:58;10.02;;;3.75;;
72649;SDS011;61467;50.674;4.618;2022-08-23T00:43:29;14.23;;;3.40;;
72649;SDS011;61467;50.674;4.618;2022-08-23T00:46:19;11.10;;;3.33;;
72649;SDS011;61467;50.674;4.618;2022-08-23T00:49:13;10.35;;;3.40;;
72649;SDS011;61467;50.674;4.618;2022-08-23T00:51:43;8.70;;;3.40;;
72649;SDS011;61467;50.674;4.618;2022-08-23T00:54:14;9.65;;;3.70;;
72649;SDS011;61467;50.674;4.618;2022-08-23T00:56:42;11.02;;;3.20;;
72649;SDS011;61467;50.674;4.618;2022-08-23T00:59:10;8.83;;;3.07;;
72649;SDS011;61467;50.674;4.618;2022-08-23T01:01:37;11.15;;;3.30;;
72649;SDS011;61467;50.674;4.618;2022-08-23T01:04:04;9.65;;;3.20;;
72649;SDS011;61467;50.674;4.618;2022-08-23T01:06:32;8.10;;;3.08;;
72649;SDS011;61467;50.674;4.618;2022-08-23T01:09:04;10.68;;;3.55;;
72649;SDS011;61467;50.674;4.618;2022-08-23T01:11:35;8.03;;;2.80;;
72649;SDS011;61467;50.674;4.618;2022-08-23T01:14:05;9.30;;;3.47;;
72649;SDS011;61467;50.674;4.618;2022-08-23T01:16:38;9.93;;;3.50;;
72649;SDS011;61467;50.674;4.618;2022-08-23T01:19:11;10.95;;;3.33;;
72649;SDS011;61467;50.674;4.618;2022-08-23T01:21:44;11.57;;;3.75;;
72649;SDS011;61467;50.674;4.618;2022-08-23T01:24:16;10.87;;;3.27;;
72649;SDS011;61467;50.674;4.618;2022-08-23T01:26:43;9.52;;;3.20;;
72649;SDS011;61467;50.674;4.618;2022-08-23T01:29:10;8.85;;;3.47;;
72649;SDS011;61467;50.674;4.618;2022-08-23T01:31:37;10.00;;;2.85;;
72649;SDS011;61467;50.674;4.618;2022-08-23T01:34:05;8.85;;;3.10;;
72649;SDS011;61467;50.674;4.618;2022-08-23T01:36:34;9.63;;;3.43;;
72649;SDS011;61467;50.674;4.618;2022-08-23T01:39:02;10.55;;;3.80;;
72649;SDS011;61467;50.674;4.618;2022-08-23T01:41:30;10.32;;;3.90;;
72649;SDS011;61467;50.674;4.618;2022-08-23T01:43:57;14.40;;;3.90;;
72649;SDS011;61467;50.674;4.618;2022-08-23T01:46:24;9.77;;;3.35;;
72649;SDS011;61467;50.674;4.618;2022-08-23T01:48:52;11.60;;;3.90;;
72649;SDS011;61467;50.674;4.618;2022-08-23T01:51:20;10.98;;;3.75;;
72649;SDS011;61467;50.674;4.618;2022-08-23T01:53:48;8.85;;;4.05;;
72649;SDS011;61467;50.674;4.618;2022-08-23T01:56:14;10.95;;;4.18;;
72649;SDS011;61467;50.674;4.618;2022-08-23T01:58:45;10.25;;;4.00;;
72649;SDS011;61467;50.674;4.618;2022-08-23T02:01:12;12.43;;;4.53;;
72649;SDS011;61467;50.674;4.618;2022-08-23T02:03:39;10.57;;;4.03;;
72649;SDS011;61467;50.674;4.618;2022-08-23T02:06:05;10.80;;;4.00;;
72649;SDS011;61467;50.674;4.618;2022-08-23T02:08:32;10.80;;;4.60;;
72649;SDS011;61467;50.674;4.618;2022-08-23T02:11:19;13.70;;;4.95;;
72649;SDS011;61467;50.674;4.618;2022-08-23T02:13:49;11.30;;;4.70;;
72649;SDS011;61467;50.674;4.618;2022-08-23T02:16:22;11.57;;;4.75;;
72649;SDS011;61467;50.674;4.618;2022-08-23T02:18:50;11.45;;;5.50;;
72649;SDS011;61467;50.674;4.618;2022-08-23T02:21:17;12.70;;;5.15;;
72649;SDS011;61467;50.674;4.618;2022-08-23T02:23:44;12.25;;;4.93;;
72649;SDS011;61467;50.674;4.618;2022-08-23T02:26:11;11.67;;;5.13;;
72649;SDS011;61467;50.674;4.618;2022-08-23T02:28:38;10.32;;;5.25;;
72649;SDS011;61467;50.674;4.618;2022-08-23T02:31:06;9.10;;;4.80;;
72649;SDS011;61467;50.674;4.618;2022-08-23T02:33:33;13.82;;;5.60;;
72649;SDS011;61467;50.674;4.618;2022-08-23T02:36:00;13.82;;;5.53;;
72649;SDS011;61467;50.674;4.618;2022-08-23T02:38:28;11.07;;;5.07;;
72649;SDS011;61467;50.674;4.618;2022-08-23T02:40:55;12.27;;;5.93;;
72649;SDS011;61467;50.674;4.618;2022-08-23T02:43:21;16.67;;;5.43;;
72649;SDS011;61467;50.674;4.618;2022-08-23T02:45:49;13.13;;;5.05;;
72649;SDS011;61467;50.674;4.618;2022-08-23T02:48:18;13.43;;;5.30;;
72649;SDS011;61467;50.674;4.618;2022-08-23T02:50:45;10.73;;;5.30;;
72649;SDS011;61467;50.674;4.618;2022-08-23T02:53:11;14.35;;;5.10;;
72649;SDS011;61467;50.674;4.618;2022-08-23T02:55:39;13.60;;;5.30;;
72649;SDS011;61467;50.674;4.618;2022-08-23T02:58:09;11.65;;;5.15;;
72649;SDS011;61467;50.674;4.618;2022-08-23T03:00:36;10.38;;;5.25;;
72649;SDS011;61467;50.674;4.618;2022-08-23T03:03:03;15.93;;;5.43;;
72649;SDS011;61467;50.674;4.618;2022-08-23T03:05:31;18.35;;;7.20;;
72649;SDS011;61467;50.674;4.618;2022-08-23T03:07:58;15.20;;;5.78;;
72649;SDS011;61467;50.674;4.618;2022-08-23T03:10:25;14.13;;;5.85;;
72649;SDS011;61467;50.674;4.618;2022-08-23T03:12:51;13.68;;;5.45;;
72649;SDS011;61467;50.674;4.618;2022-08-23T03:15:18;15.10;;;6.40;;
72649;SDS011;61467;50.674;4.618;2022-08-23T03:17:45;13.07;;;5.28;;
72649;SDS011;61467;50.674;4.618;2022-08-23T03:20:12;13.43;;;6.65;;
72649;SDS011;61467;50.674;4.618;2022-08-23T03:22:40;13.20;;;6.25;;
72649;SDS011;61467;50.674;4.618;2022-08-23T03:25:07;13.45;;;5.80;;
72649;SDS011;61467;50.674;4.618;2022-08-23T03:27:34;14.53;;;5.47;;
72649;SDS011;61467;50.674;4.618;2022-08-23T03:30:02;14.23;;;6.00;;
72649;SDS011;61467;50.674;4.618;2022-08-23T03:32:29;10.50;;;5.70;;
72649;SDS011;61467;50.674;4.618;2022-08-23T03:34:56;12.63;;;5.47;;
72649;SDS011;61467;50.674;4.618;2022-08-23T03:37:23;15.10;;;5.47;;
72649;SDS011;61467;50.674;4.618;2022-08-23T03:39:51;14.73;;;5.73;;
72649;SDS011;61467;50.674;4.618;2022-08-23T03:42:18;11.43;;;5.57;;
72649;SDS011;61467;50.674;4.618;2022-08-23T03:44:44;11.95;;;5.30;;
72649;SDS011;61467;50.674;4.618;2022-08-23T03:47:11;13.10;;;5.50;;
72649;SDS011;61467;50.674;4.618;2022-08-23T03:49:38;12.65;;;5.47;;
72649;SDS011;61467;50.674;4.618;2022-08-23T03:52:04;12.47;;;5.63;;
72649;SDS011;61467;50.674;4.618;2022-08-23T03:54:32;12.43;;;5.68;;
72649;SDS011;61467;50.674;4.618;2022-08-23T03:57:01;11.82;;;4.85;;
72649;SDS011;61467;50.674;4.618;2022-08-23T03:59:30;9.02;;;4.35;;
72649;SDS011;61467;50.674;4.618;2022-08-23T04:01:59;11.60;;;4.40;;
72649;SDS011;61467;50.674;4.618;2022-08-23T04:04:26;12.60;;;5.83;;
72649;SDS011;61467;50.674;4.618;2022-08-23T04:06:53;13.70;;;5.13;;
72649;SDS011;61467;50.674;4.618;2022-08-23T04:09:20;12.93;;;5.32;;
72649;SDS011;61467;50.674;4.618;2022-08-23T04:11:47;13.20;;;5.20;;
72649;SDS011;61467;50.674;4.618;2022-08-23T04:14:16;12.77;;;4.72;;
72649;SDS011;61467;50.674;4.618;2022-08-23T04:16:43;20.63;;;6.20;;
72649;SDS011;61467;50.674;4.618;2022-08-23T04:19:10;12.57;;;5.30;;
72649;SDS011;61467;50.674;4.618;2022-08-23T04:21:38;16.52;;;5.90;;
72649;SDS011;61467;50.674;4.618;2022-08-23T04:24:08;10.32;;;5.15;;
72649;SDS011;61467;50.674;4.618;2022-08-23T04:26:35;15.75;;;5.85;;
72649;SDS011;61467;50.674;4.618;2022-08-23T04:29:02;13.50;;;5.27;;
72649;SDS011;61467;50.674;4.618;2022-08-23T04:31:30;16.73;;;5.97;;
72649;SDS011;61467;50.674;4.618;2022-08-23T04:33:57;12.63;;;6.05;;
72649;SDS011;61467;50.674;4.618;2022-08-23T04:36:24;16.13;;;5.78;;
72649;SDS011;61467;50.674;4.618;2022-08-23T04:38:51;13.75;;;5.72;;
72649;SDS011;61467;50.674;4.618;2022-08-23T04:41:18;14.83;;;5.70;;
72649;SDS011;61467;50.674;4.618;2022-08-23T04:44:03;15.43;;;5.63;;
72649;SDS011;61467;50.674;4.618;2022-08-23T04:46:31;12.32;;;5.05;;
72649;SDS011;61467;50.674;4.618;2022-08-23T04:48:58;15.68;;;5.45;;
72649;SDS011;61467;50.674;4.618;2022-08-23T04:51:25;12.85;;;4.97;;
72649;SDS011;61467;50.674;4.618;2022-08-23T04:53:51;10.93;;;4.63;;
72649;SDS011;61467;50.674;4.618;2022-08-23T04:56:18;18.05;;;5.00;;
72649;SDS011;61467;50.674;4.618;2022-08-23T04:58:47;15.50;;;4.85;;
72649;SDS011;61467;50.674;4.618;2022-08-23T05:01:14;10.57;;;4.60;;
72649;SDS011;61467;50.674;4.618;2022-08-23T05:03:42;14.65;;;4.90;;
72649;SDS011;61467;50.674;4.618;2022-08-23T05:06:09;10.77;;;4.20;;
72649;SDS011;61467;50.674;4.618;2022-08-23T05:08:36;15.98;;;4.95;;
72649;SDS011;61467;50.674;4.618;2022-08-23T05:11:05;15.30;;;5.28;;
72649;SDS011;61467;50.674;4.618;2022-08-23T05:13:33;17.88;;;5.63;;
72649;SDS011;61467;50.674;4.618;2022-08-23T05:16:00;14.30;;;5.57;;
72649;SDS011;61467;50.674;4.618;2022-08-23T05:18:26;14.40;;;5.47;;
72649;SDS011;61467;50.674;4.618;2022-08-23T05:20:55;17.08;;;5.85;;
72649;SDS011;61467;50.674;4.618;2022-08-23T05:23:21;17.92;;;6.10;;
72649;SDS011;61467;50.674;4.618;2022-08-23T05:25:48;20.67;;;5.95;;
72649;SDS011;61467;50.674;4.618;2022-08-23T05:28:15;18.92;;;5.90;;
72649;SDS011;61467;50.674;4.618;2022-08-23T05:30:43;15.87;;;5.33;;
72649;SDS011;61467;50.674;4.618;2022-08-23T05:33:10;19.65;;;5.40;;
72649;SDS011;61467;50.674;4.618;2022-08-23T05:35:37;17.60;;;5.68;;
72649;SDS011;61467;50.674;4.618;2022-08-23T05:38:05;15.20;;;5.25;;
72649;SDS011;61467;50.674;4.618;2022-08-23T05:40:32;17.65;;;5.50;;
72649;SDS011;61467;50.674;4.618;2022-08-23T05:42:58;20.00;;;5.50;;
72649;SDS011;61467;50.674;4.618;2022-08-23T05:45:25;16.42;;;5.35;;
72649;SDS011;61467;50.674;4.618;2022-08-23T05:47:52;14.10;;;5.22;;
72649;SDS011;61467;50.674;4.618;2022-08-23T05:50:18;12.70;;;5.03;;
72649;SDS011;61467;50.674;4.618;2022-08-23T05:52:46;14.55;;;4.45;;
72649;SDS011;61467;50.674;4.618;2022-08-23T05:55:14;16.07;;;4.70;;
72649;SDS011;61467;50.674;4.618;2022-08-23T05:57:41;13.02;;;4.18;;
72649;SDS011;61467;50.674;4.618;2022-08-23T06:00:10;15.25;;;5.05;;
72649;SDS011;61467;50.674;4.618;2022-08-23T06:02:39;13.95;;;3.95;;
72649;SDS011;61467;50.674;4.618;2022-08-23T06:05:06;11.57;;;3.70;;
72649;SDS011;61467;50.674;4.618;2022-08-23T06:07:33;11.93;;;4.03;;
72649;SDS011;61467;50.674;4.618;2022-08-23T06:10:02;11.25;;;3.78;;
72649;SDS011;61467;50.674;4.618;2022-08-23T06:12:31;11.32;;;3.53;;
72649;SDS011;61467;50.674;4.618;2022-08-23T06:14:58;13.85;;;4.32;;
72649;SDS011;61467;50.674;4.618;2022-08-23T06:17:25;9.23;;;3.10;;
72649;SDS011;61467;50.674;4.618;2022-08-23T06:19:51;10.27;;;3.60;;
72649;SDS011;61467;50.674;4.618;2022-08-23T06:22:18;11.77;;;3.30;;
72649;SDS011;61467;50.674;4.618;2022-08-23T06:24:46;9.90;;;3.22;;
72649;SDS011;61467;50.674;4.618;2022-08-23T06:27:12;11.98;;;3.42;;
72649;SDS011;61467;50.674;4.618;2022-08-23T06:29:41;8.95;;;3.25;;
72649;SDS011;61467;50.674;4.618;2022-08-23T06:32:10;12.37;;;3.13;;
72649;SDS011;61467;50.674;4.618;2022-08-23T06:34:37;10.88;;;3.83;;
72649;SDS011;61467;50.674;4.618;2022-08-23T06:37:05;10.18;;;3.92;;
72649;SDS011;61467;50.674;4.618;2022-08-23T06:39:34;12.80;;;3.50;;
72649;SDS011;61467;50.674;4.618;2022-08-23T06:42:02;13.95;;;4.28;;
72649;SDS011;61467;50.674;4.618;2022-08-23T06:44:32;10.03;;;3.20;;
72649;SDS011;61467;50.674;4.618;2022-08-23T06:47:02;14.95;;;3.55;;
72649;SDS011;61467;50.674;4.618;2022-08-23T06:49:30;13.38;;;3.45;;
72649;SDS011;61467;50.674;4.618;2022-08-23T06:51:57;13.32;;;3.42;;
72649;SDS011;61467;50.674;4.618;2022-08-23T06:54:26;12.93;;;3.67;;
72649;SDS011;61467;50.674;4.618;2022-08-23T06:56:55;10.97;;;3.50;;
72649;SDS011;61467;50.674;4.618;2022-08-23T06:59:22;10.05;;;3.35;;
72649;SDS011;61467;50.674;4.618;2022-08-23T07:01:49;11.68;;;3.55;;
72649;SDS011;61467;50.674;4.618;2022-08-23T07:04:21;10.63;;;3.17;;
72649;SDS011;61467;50.674;4.618;2022-08-23T07:06:50;10.82;;;3.33;;
72649;SDS011;61467;50.674;4.618;2022-08-23T07:09:16;10.33;;;3.40;;
72649;SDS011;61467;50.674;4.618;2022-08-23T07:11:43;11.75;;;3.47;;
72649;SDS011;61467;50.674;4.618;2022-08-23T07:14:11;9.75;;;2.72;;
72649;SDS011;61467;50.674;4.618;2022-08-23T07:16:41;15.35;;;3.38;;
72649;SDS011;61467;50.674;4.618;2022-08-23T07:19:12;10.02;;;3.10;;
72649;SDS011;61467;50.674;4.618;2022-08-23T07:21:41;10.83;;;3.23;;
72649;SDS011;61467;50.674;4.618;2022-08-23T07:24:08;12.25;;;3.20;;
72649;SDS011;61467;50.674;4.618;2022-08-23T07:26:35;8.50;;;3.03;;
72649;SDS011;61467;50.674;4.618;2022-08-23T07:29:03;13.45;;;3.03;;
72649;SDS011;61467;50.674;4.618;2022-08-23T07:31:31;12.45;;;3.13;;
72649;SDS011;61467;50.674;4.618;2022-08-23T07:34:00;8.73;;;2.97;;
72649;SDS011;61467;50.674;4.618;2022-08-23T07:36:28;9.63;;;2.78;;
72649;SDS011;61467;50.674;4.618;2022-08-23T07:38:58;10.27;;;3.00;;
72649;SDS011;61467;50.674;4.618;2022-08-23T07:41:26;12.85;;;2.72;;
72649;SDS011;61467;50.674;4.618;2022-08-23T07:43:56;12.70;;;2.67;;
72649;SDS011;61467;50.674;4.618;2022-08-23T07:46:23;13.27;;;2.70;;
72649;SDS011;61467;50.674;4.618;2022-08-23T07:48:51;12.00;;;3.13;;
72649;SDS011;61467;50.674;4.618;2022-08-23T07:51:18;12.88;;;3.58;;
72649;SDS011;61467;50.674;4.618;2022-08-23T07:53:45;9.23;;;2.80;;
72649;SDS011;61467;50.674;4.618;2022-08-23T07:56:14;10.43;;;3.10;;
72649;SDS011;61467;50.674;4.618;2022-08-23T07:58:41;10.17;;;2.70;;
72649;SDS011;61467;50.674;4.618;2022-08-23T08:01:09;9.05;;;2.75;;
72649;SDS011;61467;50.674;4.618;2022-08-23T08:03:39;9.93;;;2.90;;
72649;SDS011;61467;50.674;4.618;2022-08-23T08:06:08;7.53;;;2.10;;
72649;SDS011;61467;50.674;4.618;2022-08-23T08:08:37;10.48;;;2.15;;
72649;SDS011;61467;50.674;4.618;2022-08-23T08:11:04;6.13;;;1.50;;
72649;SDS011;61467;50.674;4.618;2022-08-23T08:13:32;8.02;;;1.85;;
72649;SDS011;61467;50.674;4.618;2022-08-23T08:15:59;6.50;;;1.88;;
72649;SDS011;61467;50.674;4.618;2022-08-23T08:18:26;7.68;;;1.88;;
72649;SDS011;61467;50.674;4.618;2022-08-23T08:20:53;8.38;;;1.98;;
72649;SDS011;61467;50.674;4.618;2022-08-23T08:23:19;8.50;;;1.80;;
72649;SDS011;61467;50.674;4.618;2022-08-23T08:25:46;8.52;;;1.92;;
72649;SDS011;61467;50.674;4.618;2022-08-23T08:28:13;7.80;;;2.15;;
72649;SDS011;61467;50.674;4.618;2022-08-23T08:30:41;4.90;;;1.40;;
72649;SDS011;61467;50.674;4.618;2022-08-23T08:33:07;6.82;;;1.60;;
72649;SDS011;61467;50.674;4.618;2022-08-23T08:35:34;7.83;;;1.50;;
72649;SDS011;61467;50.674;4.618;2022-08-23T08:38:01;7.18;;;2.13;;
72649;SDS011;61467;50.674;4.618;2022-08-23T08:40:29;7.43;;;1.75;;
72649;SDS011;61467;50.674;4.618;2022-08-23T08:43:06;5.88;;;1.50;;
72649;SDS011;61467;50.674;4.618;2022-08-23T08:45:48;5.80;;;1.50;;
72649;SDS011;61467;50.674;4.618;2022-08-23T08:48:21;5.23;;;1.50;;
72649;SDS011;61467;50.674;4.618;2022-08-23T08:50:51;6.18;;;1.42;;
72649;SDS011;61467;50.674;4.618;2022-08-23T08:53:21;5.50;;;1.60;;
72649;SDS011;61467;50.674;4.618;2022-08-23T08:55:54;4.90;;;1.42;;
72649;SDS011;61467;50.674;4.618;2022-08-23T08:58:25;5.47;;;1.40;;
72649;SDS011;61467;50.674;4.618;2022-08-23T09:00:59;7.90;;;1.53;;
72649;SDS011;61467;50.674;4.618;2022-08-23T09:03:28;5.07;;;1.42;;
72649;SDS011;61467;50.674;4.618;2022-08-23T09:06:00;5.22;;;1.50;;
72649;SDS011;61467;50.674;4.618;2022-08-23T09:08:34;8.20;;;1.30;;
72649;SDS011;61467;50.674;4.618;2022-08-23T09:11:13;5.75;;;1.10;;
72649;SDS011;61467;50.674;4.618;2022-08-23T09:14:01;3.80;;;1.10;;
72649;SDS011;61467;50.674;4.618;2022-08-23T09:16:50;7.53;;;1.20;;
72649;SDS011;61467;50.674;4.618;2022-08-23T09:19:20;5.45;;;1.00;;
72649;SDS011;61467;50.674;4.618;2022-08-23T09:21:48;6.45;;;1.10;;
72649;SDS011;61467;50.674;4.618;2022-08-23T09:24:21;10.70;;;1.50;;
72649;SDS011;61467;50.674;4.618;2022-08-23T09:26:48;6.70;;;1.27;;
72649;SDS011;61467;50.674;4.618;2022-08-23T09:29:19;5.47;;;1.17;;
72649;SDS011;61467;50.674;4.618;2022-08-23T09:31:52;4.38;;;1.20;;
72649;SDS011;61467;50.674;4.618;2022-08-23T09:34:27;4.28;;;0.95;;
72649;SDS011;61467;50.674;4.618;2022-08-23T09:37:05;5.05;;;1.27;;
72649;SDS011;61467;50.674;4.618;2022-08-23T09:39:39;5.73;;;1.20;;
72649;SDS011;61467;50.674;4.618;2022-08-23T09:42:08;5.40;;;1.00;;
72649;SDS011;61467;50.674;4.618;2022-08-23T09:44:51;6.60;;;0.93;;
72649;SDS011;61467;50.674;4.618;2022-08-23T09:47:19;5.65;;;1.15;;
72649;SDS011;61467;50.674;4.618;2022-08-23T09:49:47;6.68;;;1.15;;
72649;SDS011;61467;50.674;4.618;2022-08-23T09:52:20;4.40;;;1.10;;
72649;SDS011;61467;50.674;4.618;2022-08-23T09:54:58;5.95;;;0.88;;
72649;SDS011;61467;50.674;4.618;2022-08-23T09:57:29;7.43;;;1.23;;
72649;SDS011;61467;50.674;4.618;2022-08-23T09:59:59;4.32;;;0.77;;
72649;SDS011;61467;50.674;4.618;2022-08-23T10:02:30;5.95;;;0.85;;
72649;SDS011;61467;50.674;4.618;2022-08-23T10:04:59;5.43;;;0.70;;
72649;SDS011;61467;50.674;4.618;2022-08-23T10:07:28;4.10;;;0.85;;
72649;SDS011;61467;50.674;4.618;2022-08-23T10:10:11;6.82;;;1.33;;
72649;SDS011;61467;50.674;4.618;2022-08-23T10:12:39;5.75;;;1.27;;
72649;SDS011;61467;50.674;4.618;2022-08-23T10:15:07;7.80;;;1.10;;
72649;SDS011;61467;50.674;4.618;2022-08-23T10:17:37;5.10;;;0.70;;
72649;SDS011;61467;50.674;4.618;2022-08-23T10:20:16;4.57;;;0.80;;
72649;SDS011;61467;50.674;4.618;2022-08-23T10:22:54;4.80;;;0.70;;
72649;SDS011;61467;50.674;4.618;2022-08-23T10:25:29;5.15;;;0.60;;
72649;SDS011;61467;50.674;4.618;2022-08-23T10:28:02;3.53;;;1.00;;
72649;SDS011;61467;50.674;4.618;2022-08-23T10:30:54;4.10;;;0.70;;
72649;SDS011;61467;50.674;4.618;2022-08-23T10:33:33;4.82;;;1.05;;
72649;SDS011;61467;50.674;4.618;2022-08-23T10:36:08;5.65;;;1.23;;
72649;SDS011;61467;50.674;4.618;2022-08-23T10:38:44;3.58;;;0.70;;
72649;SDS011;61467;50.674;4.618;2022-08-23T10:41:32;3.53;;;0.75;;
72649;SDS011;61467;50.674;4.618;2022-08-23T10:44:14;4.27;;;0.77;;
72649;SDS011;61467;50.674;4.618;2022-08-23T10:46:51;4.93;;;0.93;;
72649;SDS011;61467;50.674;4.618;2022-08-23T10:49:27;5.90;;;1.08;;
72649;SDS011;61467;50.674;4.618;2022-08-23T10:51:54;5.50;;;1.35;;
72649;SDS011;61467;50.674;4.618;2022-08-23T10:54:24;8.05;;;1.30;;
72649;SDS011;61467;50.674;4.618;2022-08-23T10:56:59;5.47;;;1.03;;
72649;SDS011;61467;50.674;4.618;2022-08-23T10:59:27;7.68;;;0.95;;
72649;SDS011;61467;50.674;4.618;2022-08-23T11:01:56;4.40;;;1.23;;
72649;SDS011;61467;50.674;4.618;2022-08-23T11:04:33;4.65;;;1.25;;
72649;SDS011;61467;50.674;4.618;2022-08-23T11:07:13;3.47;;;0.80;;
72649;SDS011;61467;50.674;4.618;2022-08-23T11:12:48;5.07;;;0.95;;
72649;SDS011;61467;50.674;4.618;2022-08-23T11:15:20;5.80;;;1.17;;
72649;SDS011;61467;50.674;4.618;2022-08-23T11:18:08;5.47;;;1.20;;
72649;SDS011;61467;50.674;4.618;2022-08-23T11:20:58;3.45;;;1.05;;
72649;SDS011;61467;50.674;4.618;2022-08-23T11:23:35;5.27;;;0.90;;
72649;SDS011;61467;50.674;4.618;2022-08-23T11:26:05;4.60;;;0.85;;
72649;SDS011;61467;50.674;4.618;2022-08-23T11:28:39;3.78;;;0.80;;
72649;SDS011;61467;50.674;4.618;2022-08-23T11:31:18;4.63;;;0.73;;
72649;SDS011;61467;50.674;4.618;2022-08-23T11:33:49;3.75;;;0.90;;
72649;SDS011;61467;50.674;4.618;2022-08-23T11:36:20;4.43;;;0.80;;
72649;SDS011;61467;50.674;4.618;2022-08-23T11:39:06;4.03;;;0.88;;
72649;SDS011;61467;50.674;4.618;2022-08-23T11:41:57;3.13;;;0.70;;
72649;SDS011;61467;50.674;4.618;2022-08-23T11:44:32;4.10;;;0.88;;
72649;SDS011;61467;50.674;4.618;2022-08-23T11:47:02;4.75;;;0.70;;
72649;SDS011;61467;50.674;4.618;2022-08-23T11:52:53;2.47;;;0.60;;
72649;SDS011;61467;50.674;4.618;2022-08-23T11:58:43;3.58;;;0.85;;
72649;SDS011;61467;50.674;4.618;2022-08-23T12:01:26;3.97;;;0.70;;
72649;SDS011;61467;50.674;4.618;2022-08-23T12:03:57;2.87;;;0.73;;
72649;SDS011;61467;50.674;4.618;2022-08-23T12:06:40;2.65;;;0.68;;
72649;SDS011;61467;50.674;4.618;2022-08-23T12:09:11;4.22;;;0.82;;
72649;SDS011;61467;50.674;4.618;2022-08-23T12:14:49;4.05;;;0.57;;
72649;SDS011;61467;50.674;4.618;2022-08-23T12:20:25;2.35;;;0.70;;
72649;SDS011;61467;50.674;4.618;2022-08-23T12:23:06;4.47;;;0.70;;
72649;SDS011;61467;50.674;4.618;2022-08-23T12:25:41;3.50;;;0.93;;
72649;SDS011;61467;50.674;4.618;2022-08-23T12:28:24;4.00;;;0.70;;
72649;SDS011;61467;50.674;4.618;2022-08-23T12:31:03;3.83;;;0.90;;
72649;SDS011;61467;50.674;4.618;2022-08-23T12:33:40;4.28;;;0.50;;
72649;SDS011;61467;50.674;4.618;2022-08-23T12:36:15;3.83;;;0.80;;
72649;SDS011;61467;50.674;4.618;2022-08-23T12:38:51;2.92;;;0.60;;
72649;SDS011;61467;50.674;4.618;2022-08-23T12:41:28;4.00;;;0.80;;
72649;SDS011;61467;50.674;4.618;2022-08-23T12:43:58;2.07;;;0.50;;
72649;SDS011;61467;50.674;4.618;2022-08-23T12:46:30;2.92;;;0.80;;
72649;SDS011;61467;50.674;4.618;2022-08-23T12:48:58;3.45;;;0.60;;
72649;SDS011;61467;50.674;4.618;2022-08-23T12:51:25;2.65;;;0.60;;
72649;SDS011;61467;50.674;4.618;2022-08-23T12:53:52;2.42;;;0.43;;
72649;SDS011;61467;50.674;4.618;2022-08-23T12:56:20;4.00;;;0.40;;
72649;SDS011;61467;50.674;4.618;2022-08-23T12:58:52;3.25;;;0.40;;
72649;SDS011;61467;50.674;4.618;2022-08-23T13:01:22;2.88;;;0.55;;
72649;SDS011;61467;50.674;4.618;2022-08-23T13:03:52;1.67;;;0.52;;
72649;SDS011;61467;50.674;4.618;2022-08-23T13:06:23;2.03;;;0.60;;
72649;SDS011;61467;50.674;4.618;2022-08-23T13:08:53;4.33;;;0.50;;
72649;SDS011;61467;50.674;4.618;2022-08-23T13:11:24;2.65;;;0.70;;
72649;SDS011;61467;50.674;4.618;2022-08-23T13:13:53;2.25;;;0.60;;
72649;SDS011;61467;50.674;4.618;2022-08-23T13:16:25;5.03;;;0.63;;
72649;SDS011;61467;50.674;4.618;2022-08-23T13:18:54;2.28;;;0.60;;
72649;SDS011;61467;50.674;4.618;2022-08-23T13:21:35;2.67;;;0.63;;
72649;SDS011;61467;50.674;4.618;2022-08-23T13:24:24;1.50;;;0.38;;
72649;SDS011;61467;50.674;4.618;2022-08-23T13:26:55;1.83;;;0.50;;
72649;SDS011;61467;50.674;4.618;2022-08-23T13:29:47;5.72;;;0.93;;
72649;SDS011;61467;50.674;4.618;2022-08-23T13:32:30;4.43;;;0.70;;
72649;SDS011;61467;50.674;4.618;2022-08-23T13:38:00;4.88;;;0.50;;
72649;SDS011;61467;50.674;4.618;2022-08-23T13:40:39;2.42;;;0.70;;
72649;SDS011;61467;50.674;4.618;2022-08-23T13:43:11;3.22;;;0.45;;
72649;SDS011;61467;50.674;4.618;2022-08-23T13:45:44;2.90;;;0.60;;
72649;SDS011;61467;50.674;4.618;2022-08-23T13:48:14;5.40;;;0.90;;
72649;SDS011;61467;50.674;4.618;2022-08-23T13:50:44;2.72;;;0.57;;
72649;SDS011;61467;50.674;4.618;2022-08-23T13:53:11;4.03;;;0.60;;
72649;SDS011;61467;50.674;4.618;2022-08-23T13:55:39;2.45;;;0.60;;
72649;SDS011;61467;50.674;4.618;2022-08-23T13:58:08;4.78;;;0.60;;
72649;SDS011;61467;50.674;4.618;2022-08-23T14:00:35;2.47;;;0.50;;
72649;SDS011;61467;50.674;4.618;2022-08-23T14:03:03;2.88;;;0.60;;
72649;SDS011;61467;50.674;4.618;2022-08-23T14:05:30;4.30;;;1.10;;
72649;SDS011;61467;50.674;4.618;2022-08-23T14:07:57;4.00;;;1.27;;
72649;SDS011;61467;50.674;4.618;2022-08-23T14:10:24;3.55;;;0.68;;
72649;SDS011;61467;50.674;4.618;2022-08-23T14:12:52;1.83;;;0.50;;
72649;SDS011;61467;50.674;4.618;2022-08-23T14:15:20;3.13;;;0.70;;
72649;SDS011;61467;50.674;4.618;2022-08-23T14:17:48;2.67;;;0.52;;
72649;SDS011;61467;50.674;4.618;2022-08-23T14:20:18;3.67;;;0.68;;
72649;SDS011;61467;50.674;4.618;2022-08-23T14:22:45;2.05;;;0.60;;
72649;SDS011;61467;50.674;4.618;2022-08-23T14:25:12;2.17;;;0.57;;
72649;SDS011;61467;50.674;4.618;2022-08-23T14:27:40;4.95;;;0.60;;
72649;SDS011;61467;50.674;4.618;2022-08-23T14:30:23;2.88;;;0.60;;
72649;SDS011;61467;50.674;4.618;2022-08-23T14:32:52;2.50;;;0.60;;
72649;SDS011;61467;50.674;4.618;2022-08-23T14:35:20;2.03;;;0.43;;
72649;SDS011;61467;50.674;4.618;2022-08-23T14:37:47;2.70;;;0.50;;
72649;SDS011;61467;50.674;4.618;2022-08-23T14:40:15;3.80;;;0.50;;
72649;SDS011;61467;50.674;4.618;2022-08-23T14:42:42;2.40;;;0.50;;
72649;SDS011;61467;50.674;4.618;2022-08-23T14:45:11;3.38;;;0.70;;
72649;SDS011;61467;50.674;4.618;2022-08-23T14:47:39;2.63;;;0.50;;
72649;SDS011;61467;50.674;4.618;2022-08-23T14:50:07;2.07;;;0.50;;
72649;SDS011;61467;50.674;4.618;2022-08-23T14:52:38;4.13;;;0.50;;
72649;SDS011;61467;50.674;4.618;2022-08-23T14:55:06;1.83;;;0.40;;
72649;SDS011;61467;50.674;4.618;2022-08-23T14:57:33;5.05;;;1.67;;
72649;SDS011;61467;50.674;4.618;2022-08-23T15:00:00;2.75;;;0.85;;
72649;SDS011;61467;50.674;4.618;2022-08-23T15:02:27;3.00;;;0.40;;
72649;SDS011;61467;50.674;4.618;2022-08-23T15:04:54;2.70;;;0.60;;
72649;SDS011;61467;50.674;4.618;2022-08-23T15:07:21;1.98;;;0.47;;
72649;SDS011;61467;50.674;4.618;2022-08-23T15:09:50;3.10;;;0.60;;
72649;SDS011;61467;50.674;4.618;2022-08-23T15:12:19;4.28;;;0.60;;
72649;SDS011;61467;50.674;4.618;2022-08-23T15:14:47;2.53;;;0.60;;
72649;SDS011;61467;50.674;4.618;2022-08-23T15:17:14;3.65;;;0.52;;